createdAt,value
2022-11-27T00:01:39.344Z,81.96
2022-11-27T00:04:08.800Z,81.51
2022-11-27T00:06:37.898Z,80.76
2022-11-27T00:09:11.318Z,79.88
2022-11-27T00:11:41.910Z,79.96
2022-11-27T00:14:12.952Z,80.23
2022-11-27T00:16:40.072Z,80.14
2022-11-27T00:19:07.636Z,80.03
2022-11-27T00:21:36.572Z,80.21
2022-11-27T00:24:08.345Z,80.39
2022-11-27T00:26:38.164Z,79.60
2022-11-27T00:29:08.927Z,80.35
2022-11-27T00:31:37.787Z,81.00
2022-11-27T00:34:08.617Z,80.87
2022-11-27T00:36:36.670Z,81.59
2022-11-27T00:39:06.851Z,81.11
2022-11-27T00:41:34.387Z,80.84
2022-11-27T00:44:04.772Z,81.28
2022-11-27T00:46:34.366Z,81.04
2022-11-27T00:49:06.422Z,81.54
2022-11-27T00:51:33.734Z,81.07
2022-11-27T00:54:01.051Z,80.68
2022-11-27T00:56:38.195Z,80.45
2022-11-27T00:59:07.427Z,80.50
2022-11-27T01:01:40.035Z,79.84
2022-11-27T01:04:10.982Z,80.79
2022-11-27T01:06:38.498Z,80.85
2022-11-27T01:09:06.042Z,81.14
2022-11-27T01:11:35.820Z,81.70
2022-11-27T01:14:07.603Z,81.68
2022-11-27T01:16:38.548Z,82.34
2022-11-27T01:19:08.013Z,81.47
2022-11-27T01:21:35.878Z,81.40
2022-11-27T01:24:04.675Z,81.77
2022-11-27T01:26:34.188Z,82.63
2022-11-27T01:29:01.401Z,81.65
2022-11-27T01:31:32.866Z,81.61
2022-11-27T01:34:16.143Z,81.14
2022-11-27T01:36:43.507Z,81.21
2022-11-27T01:39:20.801Z,80.53
2022-11-27T01:41:49.143Z,80.50
2022-11-27T01:44:25.160Z,80.13
2022-11-27T01:47:05.343Z,80.94
2022-11-27T01:49:38.364Z,80.59
2022-11-27T01:52:10.886Z,79.95
2022-11-27T01:54:50.698Z,80.20
2022-11-27T01:57:25.073Z,79.76
2022-11-27T01:59:54.715Z,80.34
2022-11-27T02:02:21.849Z,80.13
2022-11-27T02:04:49.121Z,80.19
2022-11-27T02:07:16.340Z,79.67
2022-11-27T02:09:43.521Z,80.44
2022-11-27T02:12:33.319Z,80.12
2022-11-27T02:15:21.493Z,79.57
2022-11-27T02:18:01.904Z,79.53
2022-11-27T02:20:58.026Z,80.08
2022-11-27T02:24:07.100Z,80.09
2022-11-27T02:27:16.507Z,80.83
2022-11-27T02:29:58.249Z,80.36
2022-11-27T02:32:38.255Z,80.51
2022-11-27T02:35:19.971Z,79.86
2022-11-27T02:38:13.514Z,80.32
2022-11-27T02:40:59.020Z,79.89
2022-11-27T02:43:33.647Z,80.99
2022-11-27T02:46:02.921Z,79.68
2022-11-27T02:48:43.663Z,79.71
2022-11-27T02:51:14.482Z,80.55
2022-11-27T02:53:56.552Z,81.55
2022-11-27T02:56:28.365Z,82.26
2022-11-27T02:59:00.404Z,82.27
2022-11-27T03:01:33.684Z,81.99
2022-11-27T03:04:06.748Z,83.16
2022-11-27T03:06:50.309Z,83.76
2022-11-27T03:09:57.229Z,85.64
2022-11-27T03:12:26.383Z,85.19
2022-11-27T03:14:55.657Z,85.63
2022-11-27T03:17:34.716Z,85.52
2022-11-27T03:20:23.774Z,85.92
2022-11-27T03:22:52.434Z,85.10
2022-11-27T03:25:19.460Z,84.88
2022-11-27T03:28:03.841Z,83.85
2022-11-27T03:30:33.656Z,83.48
2022-11-27T03:33:04.072Z,83.83
2022-11-27T03:35:31.967Z,82.51
2022-11-27T03:38:01.550Z,81.36
2022-11-27T03:40:40.481Z,80.55
2022-11-27T03:43:19.001Z,80.68
2022-11-27T03:46:05.392Z,80.52
2022-11-27T03:48:59.223Z,80.89
2022-11-27T03:52:13.186Z,79.96
2022-11-27T03:55:47.438Z,79.30
2022-11-27T03:58:40.292Z,79.34
2022-11-27T04:01:12.603Z,79.28
2022-11-27T04:03:39.598Z,79.53
2022-11-27T04:06:06.929Z,79.44
2022-11-27T04:08:34.036Z,79.39
2022-11-27T04:11:01.030Z,80.01
2022-11-27T04:13:27.973Z,79.10
2022-11-27T04:15:54.961Z,81.15
2022-11-27T04:18:21.994Z,81.97
2022-11-27T04:20:48.991Z,81.25
2022-11-27T04:23:16.072Z,81.26
2022-11-27T04:25:46.095Z,81.61
2022-11-27T04:28:13.123Z,80.01
2022-11-27T04:30:42.979Z,79.43
2022-11-27T04:33:10.392Z,78.85
2022-11-27T04:35:37.549Z,79.55
2022-11-27T04:38:04.587Z,79.12
2022-11-27T04:40:34.088Z,79.73
2022-11-27T04:43:01.368Z,80.39
2022-11-27T04:45:28.354Z,79.65
2022-11-27T04:47:55.334Z,79.77
2022-11-27T04:50:24.459Z,79.32
2022-11-27T04:52:51.440Z,78.90
2022-11-27T04:55:18.482Z,78.49
2022-11-27T04:57:45.531Z,77.97
2022-11-27T05:00:13.428Z,78.52
2022-11-27T05:02:43.436Z,78.75
2022-11-27T05:05:10.525Z,78.55
2022-11-27T05:07:37.809Z,80.69
2022-11-27T05:10:08.633Z,79.85
2022-11-27T05:12:38.183Z,81.19
2022-11-27T05:15:06.015Z,80.81
2022-11-27T05:17:33.044Z,79.91
2022-11-27T05:20:00.052Z,81.36
2022-11-27T05:22:29.341Z,80.53
2022-11-27T05:24:56.296Z,81.53
2022-11-27T05:27:23.335Z,81.55
2022-11-27T05:29:50.415Z,82.44
2022-11-27T05:32:17.388Z,80.73
2022-11-27T05:34:44.500Z,80.99
2022-11-27T05:37:19.034Z,81.59
2022-11-27T05:39:46.822Z,81.17
2022-11-27T05:42:13.853Z,82.11
2022-11-27T05:44:41.054Z,82.23
2022-11-27T05:47:10.765Z,81.57
2022-11-27T05:49:40.360Z,81.77
2022-11-27T05:52:07.414Z,81.16
2022-11-27T05:54:34.443Z,80.88
2022-11-27T05:57:01.644Z,80.81
2022-11-27T05:59:28.609Z,80.78
2022-11-27T06:01:55.730Z,81.19
2022-11-27T06:04:22.864Z,81.75
2022-11-27T06:06:49.889Z,80.43
2022-11-27T06:09:16.931Z,80.31
2022-11-27T06:11:44.127Z,80.40
2022-11-27T06:14:11.551Z,81.55
2022-11-27T06:16:41.475Z,80.18
2022-11-27T06:19:09.348Z,81.26
2022-11-27T06:21:38.586Z,82.13
2022-11-27T06:24:06.175Z,81.62
2022-11-27T06:26:34.044Z,82.70
2022-11-27T06:29:02.016Z,83.59
2022-11-27T06:31:33.779Z,85.46
2022-11-27T06:34:01.689Z,83.42
2022-11-27T06:36:32.603Z,83.17
2022-11-27T06:38:59.914Z,83.26
2022-11-27T06:41:28.694Z,83.45
2022-11-27T06:44:05.298Z,82.40
2022-11-27T06:46:32.529Z,83.04
2022-11-27T06:49:01.108Z,82.10
2022-11-27T06:51:30.975Z,81.10
2022-11-27T06:54:01.010Z,81.14
2022-11-27T06:56:30.472Z,81.44
2022-11-27T06:59:03.627Z,81.74
2022-11-27T07:01:31.986Z,81.49
2022-11-27T07:04:01.973Z,82.33
2022-11-27T07:06:29.314Z,81.64
2022-11-27T07:08:56.809Z,81.75
2022-11-27T07:11:27.732Z,83.76
2022-11-27T07:13:58.242Z,85.14
2022-11-27T07:16:27.766Z,84.99
2022-11-27T07:18:59.059Z,86.03
2022-11-27T07:21:28.973Z,84.15
2022-11-27T07:23:59.088Z,84.13
2022-11-27T07:26:29.862Z,83.23
2022-11-27T07:28:57.124Z,83.66
2022-11-27T07:31:28.281Z,83.83
2022-11-27T07:33:56.071Z,82.44
2022-11-27T07:36:28.099Z,81.53
2022-11-27T07:38:55.726Z,81.89
2022-11-27T07:41:22.848Z,81.84
2022-11-27T07:43:49.824Z,80.90
2022-11-27T07:46:22.143Z,80.68
2022-11-27T07:48:49.919Z,80.43
2022-11-27T07:51:20.820Z,80.11
2022-11-27T07:53:53.352Z,79.36
2022-11-27T07:56:21.335Z,79.02
2022-11-27T07:58:49.178Z,81.20
2022-11-27T08:01:19.360Z,80.08
2022-11-27T08:03:46.926Z,80.00
2022-11-27T08:06:34.029Z,79.51
2022-11-27T08:09:01.090Z,79.77
2022-11-27T08:11:32.958Z,79.11
2022-11-27T08:14:06.424Z,79.56
2022-11-27T08:16:35.355Z,78.97
2022-11-27T08:19:02.901Z,78.69
2022-11-27T08:21:30.659Z,78.67
2022-11-27T08:23:58.428Z,78.40
2022-11-27T08:26:27.682Z,78.53
2022-11-27T08:28:57.147Z,79.01
2022-11-27T08:31:24.903Z,80.85
2022-11-27T08:33:52.257Z,80.67
2022-11-27T08:36:29.683Z,80.88
2022-11-27T08:38:57.160Z,82.11
2022-11-27T08:41:24.191Z,81.75
2022-11-27T08:43:51.428Z,81.65
2022-11-27T08:46:18.538Z,81.81
2022-11-27T08:48:45.776Z,82.35
2022-11-27T08:51:16.041Z,83.46
2022-11-27T08:53:45.692Z,82.39
2022-11-27T08:56:24.874Z,81.75
2022-11-27T08:58:54.472Z,81.87
2022-11-27T09:01:31.623Z,81.51
2022-11-27T09:03:59.264Z,80.88
2022-11-27T09:06:31.354Z,81.13
2022-11-27T09:09:00.424Z,80.27
2022-11-27T09:11:31.160Z,80.75
2022-11-27T09:14:03.005Z,80.84
2022-11-27T09:16:30.753Z,81.23
2022-11-27T09:18:58.540Z,80.37
2022-11-27T09:21:33.371Z,79.68
2022-11-27T09:24:02.136Z,79.60
2022-11-27T09:26:30.295Z,79.02
2022-11-27T09:29:00.220Z,78.32
2022-11-27T09:31:27.745Z,79.27
2022-11-27T09:33:55.059Z,80.02
2022-11-27T09:36:28.334Z,79.57
2022-11-27T09:38:55.441Z,78.36
2022-11-27T09:41:56.164Z,78.89
2022-11-27T09:44:45.354Z,80.40
2022-11-27T09:47:22.222Z,79.77
2022-11-27T09:50:07.464Z,80.04
2022-11-27T09:52:50.360Z,80.33
2022-11-27T09:55:41.692Z,79.65
2022-11-27T09:58:20.524Z,79.30
2022-11-27T10:00:50.020Z,80.26
2022-11-27T10:03:24.344Z,79.94
2022-11-27T10:06:30.696Z,78.83
2022-11-27T10:09:24.768Z,78.98
2022-11-27T10:12:27.179Z,78.22
2022-11-27T10:15:19.661Z,78.34
2022-11-27T10:18:06.106Z,78.03
2022-11-27T10:20:49.549Z,78.31
2022-11-27T10:23:42.320Z,78.39
2022-11-27T10:26:36.924Z,78.98
2022-11-27T10:29:39.607Z,78.49
2022-11-27T10:32:53.443Z,78.48
2022-11-27T10:35:29.007Z,77.63
2022-11-27T10:38:13.046Z,77.71
2022-11-27T10:41:48.038Z,77.79
2022-11-27T10:44:41.631Z,76.71
2022-11-27T10:47:13.495Z,78.24
2022-11-27T10:49:42.841Z,76.95
2022-11-27T10:52:17.415Z,77.68
2022-11-27T10:54:57.593Z,77.06
2022-11-27T10:57:37.945Z,76.30
2022-11-27T11:00:23.231Z,78.87
2022-11-27T11:03:01.442Z,78.61
2022-11-27T11:05:56.839Z,77.42
2022-11-27T11:08:25.357Z,76.60
2022-11-27T11:11:01.974Z,76.95
2022-11-27T11:13:30.483Z,78.28
2022-11-27T11:16:34.853Z,77.78
2022-11-27T11:19:03.563Z,77.44
2022-11-27T11:21:42.571Z,76.48
2022-11-27T11:24:23.438Z,76.32
2022-11-27T11:26:54.910Z,77.41
2022-11-27T11:29:40.790Z,77.26
2022-11-27T11:32:21.335Z,77.13
2022-11-27T11:35:00.615Z,77.74
2022-11-27T11:37:35.112Z,77.21
2022-11-27T11:40:16.047Z,76.54
2022-11-27T11:42:58.898Z,76.58
2022-11-27T11:45:31.249Z,76.92
2022-11-27T11:48:03.481Z,78.50
2022-11-27T11:50:50.049Z,78.57
2022-11-27T11:53:34.457Z,77.45
2022-11-27T11:56:28.484Z,77.09
2022-11-27T11:59:16.508Z,77.96
2022-11-27T12:01:56.427Z,77.32
2022-11-27T12:04:41.759Z,77.09
2022-11-27T12:07:29.998Z,76.66
2022-11-27T12:10:28.117Z,76.63
2022-11-27T12:13:06.921Z,76.43
2022-11-27T12:15:55.000Z,76.13
2022-11-27T12:18:58.076Z,75.08
2022-11-27T12:22:06.477Z,75.14
2022-11-27T12:25:04.659Z,75.50
2022-11-27T12:28:11.725Z,76.61
2022-11-27T12:31:08.577Z,81.38
2022-11-27T12:34:05.903Z,79.06
2022-11-27T12:36:57.518Z,81.03
2022-11-27T12:39:33.945Z,81.23
2022-11-27T12:42:29.696Z,81.17
2022-11-27T12:45:36.580Z,79.02
2022-11-27T12:48:25.616Z,77.73
2022-11-27T12:51:00.593Z,79.08
2022-11-27T12:53:45.543Z,78.91
2022-11-27T12:56:40.403Z,77.58
2022-11-27T12:59:27.300Z,75.91
2022-11-27T13:02:28.655Z,75.99
2022-11-27T13:05:12.181Z,77.57
2022-11-27T13:08:01.208Z,76.37
2022-11-27T13:10:50.642Z,77.03
2022-11-27T13:13:59.588Z,76.83
2022-11-27T13:17:09.734Z,76.16
2022-11-27T13:19:44.261Z,75.42
2022-11-27T13:22:18.071Z,74.81
2022-11-27T13:24:45.161Z,75.06
2022-11-27T13:27:23.894Z,76.01
2022-11-27T13:30:07.980Z,75.60
2022-11-27T13:32:46.820Z,76.88
2022-11-27T13:35:43.960Z,76.33
2022-11-27T13:38:26.298Z,75.74
2022-11-27T13:40:59.515Z,75.47
2022-11-27T13:43:48.340Z,78.16
2022-11-27T13:46:25.080Z,77.49
2022-11-27T13:48:58.204Z,78.82
2022-11-27T13:51:34.053Z,77.97
2022-11-27T13:54:17.148Z,77.28
2022-11-27T13:56:44.467Z,78.09
2022-11-27T13:59:14.575Z,76.87
2022-11-27T14:02:04.724Z,75.49
2022-11-27T14:04:33.828Z,76.73
2022-11-27T14:07:13.728Z,75.97
2022-11-27T14:09:51.519Z,76.16
2022-11-27T14:12:31.744Z,76.24
2022-11-27T14:15:12.422Z,77.26
2022-11-27T14:17:45.544Z,76.64
2022-11-27T14:20:20.427Z,77.03
2022-11-27T14:23:17.536Z,78.36
2022-11-27T14:25:44.527Z,78.83
2022-11-27T14:28:27.893Z,78.23
2022-11-27T14:31:01.625Z,77.32
2022-11-27T14:33:47.360Z,77.37
2022-11-27T14:36:31.833Z,79.15
2022-11-27T14:39:05.118Z,77.94
2022-11-27T14:41:32.379Z,78.82
2022-11-27T14:44:04.282Z,79.02
2022-11-27T14:46:37.901Z,78.95
2022-11-27T14:49:04.943Z,81.09
2022-11-27T14:51:35.656Z,81.29
2022-11-27T14:54:13.693Z,79.67
2022-11-27T14:56:43.380Z,78.13
2022-11-27T14:59:20.606Z,78.23
2022-11-27T15:02:03.235Z,77.50
2022-11-27T15:04:36.895Z,77.42
2022-11-27T15:07:17.865Z,79.20
2022-11-27T15:09:49.998Z,79.61
2022-11-27T15:12:29.041Z,79.93
2022-11-27T15:15:08.032Z,81.78
2022-11-27T15:17:39.618Z,80.43
2022-11-27T15:20:24.018Z,80.36
2022-11-27T15:23:00.051Z,80.87
2022-11-27T15:25:43.472Z,82.73
2022-11-27T15:28:37.528Z,82.11
2022-11-27T15:31:28.301Z,82.40
2022-11-27T15:34:15.965Z,82.92
2022-11-27T15:36:43.505Z,81.89
2022-11-27T15:39:27.420Z,80.89
2022-11-27T15:42:08.530Z,82.82
2022-11-27T15:44:35.544Z,82.76
2022-11-27T15:47:04.757Z,84.31
2022-11-27T15:49:32.112Z,82.86
2022-11-27T15:52:02.118Z,83.22
2022-11-27T15:54:31.532Z,84.72
2022-11-27T15:57:01.141Z,83.65
2022-11-27T15:59:29.405Z,83.75
2022-11-27T16:01:57.985Z,83.80
2022-11-27T16:04:25.154Z,84.81
2022-11-27T16:06:52.269Z,85.90
2022-11-27T16:09:19.279Z,84.45
2022-11-27T16:11:46.776Z,84.83
2022-11-27T16:14:13.948Z,86.77
2022-11-27T16:16:41.064Z,86.80
2022-11-27T16:19:08.275Z,85.45
2022-11-27T16:21:35.798Z,85.77
2022-11-27T16:24:06.787Z,86.45
2022-11-27T16:26:34.521Z,86.86
2022-11-27T16:29:01.571Z,86.05
2022-11-27T16:31:31.133Z,85.80
2022-11-27T16:34:02.029Z,84.62
2022-11-27T16:36:29.221Z,84.61
2022-11-27T16:38:56.627Z,83.77
2022-11-27T16:41:24.493Z,85.62
2022-11-27T16:43:55.720Z,84.15
2022-11-27T16:46:28.477Z,84.08
2022-11-27T16:48:59.121Z,82.46
2022-11-27T16:51:34.002Z,81.45
2022-11-27T16:54:05.311Z,81.83
2022-11-27T16:56:33.831Z,80.17
2022-11-27T16:59:03.429Z,79.08
2022-11-27T17:01:36.228Z,78.34
2022-11-27T17:04:07.234Z,77.97
2022-11-27T17:06:37.999Z,77.62
2022-11-27T17:09:08.095Z,78.32
2022-11-27T17:11:37.569Z,77.30
2022-11-27T17:14:09.131Z,76.42
2022-11-27T17:16:38.872Z,76.43
2022-11-27T17:19:06.169Z,76.41
2022-11-27T17:21:35.283Z,75.79
2022-11-27T17:24:15.138Z,75.42
2022-11-27T17:26:43.602Z,75.39
2022-11-27T17:29:12.859Z,76.34
2022-11-27T17:31:44.385Z,80.16
2022-11-27T17:34:14.287Z,79.56
2022-11-27T17:36:43.125Z,79.00
2022-11-27T17:39:14.452Z,79.66
2022-11-27T17:41:44.113Z,80.27
2022-11-27T17:44:11.883Z,79.75
2022-11-27T17:46:40.099Z,80.50
2022-11-27T17:49:08.519Z,83.15
2022-11-27T17:51:36.738Z,82.51
2022-11-27T17:54:06.095Z,83.38
2022-11-27T17:56:35.977Z,82.94
2022-11-27T17:59:04.222Z,82.84
2022-11-27T18:01:31.464Z,82.67
2022-11-27T18:04:00.994Z,81.19
2022-11-27T18:06:28.183Z,82.29
2022-11-27T18:08:57.439Z,81.93
2022-11-27T18:11:30.841Z,80.98
2022-11-27T18:13:58.328Z,81.69
2022-11-27T18:16:30.312Z,82.21
2022-11-27T18:19:01.468Z,82.25
2022-11-27T18:21:28.835Z,82.80
2022-11-27T18:29:30.433Z,85.21
2022-11-27T18:31:57.758Z,85.33
2022-11-27T18:34:27.315Z,86.11
2022-11-27T18:36:57.357Z,86.11
2022-11-27T18:39:27.443Z,85.97
2022-11-27T18:41:54.471Z,85.38
2022-11-27T18:44:24.237Z,86.01
2022-11-27T18:46:51.411Z,88.37
2022-11-27T18:49:18.739Z,88.22
2022-11-27T18:51:45.774Z,87.11
2022-11-27T18:54:13.044Z,86.61
2022-11-27T18:56:40.963Z,86.51
2022-11-27T18:59:08.062Z,87.60
2022-11-27T19:01:42.026Z,87.52
2022-11-27T19:04:15.143Z,87.11
2022-11-27T19:06:42.422Z,86.50
2022-11-27T19:09:11.489Z,84.87
2022-11-27T19:11:39.851Z,84.99
2022-11-27T19:14:07.829Z,87.46
2022-11-27T19:16:45.533Z,86.00
2022-11-27T19:19:52.842Z,87.93
2022-11-27T19:22:03.206Z,88.43
2022-11-27T19:24:32.353Z,87.86
2022-11-27T19:26:59.391Z,86.88
2022-11-27T19:29:26.418Z,86.89
2022-11-27T19:31:55.299Z,88.18
2022-11-27T19:34:22.912Z,85.12
2022-11-27T19:36:49.912Z,86.64
2022-11-27T19:39:16.959Z,85.40
2022-11-27T19:41:44.470Z,86.46
2022-11-27T19:44:13.493Z,85.08
2022-11-27T19:46:41.325Z,86.20
2022-11-27T19:49:15.095Z,85.52
2022-11-27T19:51:42.180Z,86.33
2022-11-27T19:54:12.749Z,86.78
2022-11-27T19:56:40.795Z,86.59
2022-11-27T19:59:09.217Z,88.60
2022-11-27T20:01:37.919Z,88.25
2022-11-27T20:04:06.632Z,90.40
2022-11-27T20:06:36.167Z,89.37
2022-11-27T20:09:07.635Z,88.74
2022-11-27T20:11:38.218Z,87.28
2022-11-27T20:14:07.106Z,85.47
2022-11-27T20:16:36.121Z,84.64
2022-11-27T20:19:06.051Z,87.42
2022-11-27T20:21:33.336Z,85.84
2022-11-27T20:24:01.595Z,85.51
2022-11-27T20:26:30.501Z,84.67
2022-11-27T20:28:58.453Z,84.75
2022-11-27T20:31:32.731Z,84.62
2022-11-27T20:34:04.115Z,84.06
2022-11-27T20:36:34.064Z,86.54
2022-11-27T20:39:01.902Z,85.48
2022-11-27T20:41:29.651Z,86.83
2022-11-27T20:44:00.504Z,86.56
2022-11-27T20:46:28.495Z,86.60
2022-11-27T20:48:56.658Z,87.03
2022-11-27T20:51:30.934Z,86.88
2022-11-27T20:54:00.287Z,85.27
2022-11-27T20:56:31.462Z,84.58
2022-11-27T20:58:58.939Z,87.42
2022-11-27T21:01:35.431Z,87.24
2022-11-27T21:04:09.595Z,86.75
2022-11-27T21:06:43.770Z,86.28
2022-11-27T21:09:13.904Z,87.50
2022-11-27T21:11:43.555Z,88.42
2022-11-27T21:14:13.383Z,86.37
2022-11-27T21:16:48.607Z,86.70
2022-11-27T21:19:24.436Z,87.46
2022-11-27T21:21:53.020Z,87.38
2022-11-27T21:24:23.974Z,85.75
2022-11-27T21:26:51.303Z,85.28
2022-11-27T21:29:18.595Z,84.61
2022-11-27T21:31:47.368Z,85.76
2022-11-27T21:34:17.717Z,86.83
2022-11-27T21:36:44.775Z,88.24
2022-11-27T21:39:20.386Z,88.01
2022-11-27T21:41:50.279Z,85.99
2022-11-27T21:44:18.566Z,86.85
2022-11-27T21:46:46.623Z,86.35
2022-11-27T21:49:23.968Z,87.02
2022-11-27T21:51:56.608Z,88.12
2022-11-27T21:54:26.665Z,88.54
2022-11-27T21:56:56.222Z,89.83
2022-11-27T21:59:23.317Z,89.10
2022-11-27T22:01:50.683Z,87.63
2022-11-27T22:04:18.193Z,86.07
2022-11-27T22:06:45.643Z,86.84
2022-11-27T22:09:15.627Z,87.21
2022-11-27T22:11:45.210Z,88.26
2022-11-27T22:14:13.546Z,88.64
2022-11-27T22:16:45.883Z,88.42
2022-11-27T22:19:14.828Z,88.47
2022-11-27T22:21:42.506Z,86.11
2022-11-27T22:24:16.513Z,85.49
2022-11-27T22:26:45.836Z,86.52
2022-11-27T22:29:18.565Z,85.42
2022-11-27T22:31:46.531Z,86.06
2022-11-27T22:34:13.537Z,86.57
2022-11-27T22:36:40.582Z,85.81
2022-11-27T22:39:09.128Z,87.31
2022-11-27T22:41:38.933Z,86.01
2022-11-27T22:44:11.635Z,85.06
2022-11-27T22:46:43.037Z,83.74
2022-11-27T22:49:13.818Z,84.33
2022-11-27T22:51:41.636Z,85.85
2022-11-27T22:54:13.712Z,85.49
2022-11-27T22:56:45.525Z,84.81
2022-11-27T23:02:00.468Z,86.61
2022-11-27T23:04:27.916Z,87.18
2022-11-27T23:06:55.009Z,86.58
2022-11-27T23:09:22.388Z,86.22
2022-11-27T23:11:49.934Z,84.10
2022-11-27T23:14:17.373Z,84.56
2022-11-27T23:16:44.579Z,84.39
2022-11-27T23:19:12.433Z,84.15
2022-11-27T23:21:40.063Z,84.17
2022-11-27T23:24:11.778Z,84.81
2022-11-27T23:26:38.949Z,84.25
2022-11-27T23:29:06.023Z,83.85
2022-11-27T23:31:36.773Z,83.57
2022-11-27T23:34:09.639Z,83.35
2022-11-27T23:36:37.352Z,84.32
2022-11-27T23:39:08.260Z,85.61
2022-11-27T23:41:35.531Z,86.83
2022-11-27T23:44:02.543Z,86.45
2022-11-27T23:46:32.240Z,87.05
2022-11-27T23:49:00.312Z,85.30
2022-11-27T23:51:32.708Z,83.98
2022-11-27T23:54:00.448Z,85.46
2022-11-27T23:56:32.505Z,87.51
2022-11-27T23:59:00.171Z,88.46
